Meath Environmental Platform

Observations for Trim Patrick St

Time AQI Temp °C Hum % Pres Pa CO μg/m³ H₂S μg/m³ NO μg/m³ NO₂ μg/m³ O₃ μg/m³ SO₂ μg/m³ PM1 μg/m³ PM2.5 μg/m³ PM10 μg/m³
Saturday 1 August 2026
15:06 2 26.3 34 69,014 0 1.31 2.11 12.02 76.62 10.13 3.71 9.8 10.78
15:04 2 26.3 35 69,002 0 0.99 1.92 11.06 84.9 10.49 4.57 10.55 11.61
15:03 2 26.3 35 69,008 0 0.24 1.9 10.11 72.09 10.65 4.57 11.33 12.46
15:02 2 26.3 35 68,987 0 0 1.62 11.42 78.76 9.45 4.57 12.14 13.36
15:01 2 26.3 35 68,989 0 1.09 1.72 10.46 77.62 11.51 2.86 9.72 10.69
15:00 2 26.3 35 68,993 0 0 1.63 10.65 71.58 9.56 5.43 12.14 13.36
14:59 2 26.3 35 68,997 0 0 1.6 10.68 79.88 10.4 5.43 12.9 14.19
14:58 2 26.4 35 69,002 0 0 1.65 10.97 80.36 10.1 7.14 16.1 17.71
14:57 2 26.4 35 69,010 0 1.11 2.08 11.16 70.38 10.72 9.71 18.49 20.34
14:56 2 26.4 35 68,993 0 0.13 1.97 10.6 76.79 10.71 8.86 16.12 17.73
14:55 2 26.4 35 68,999 0 0 1.89 9.97 62.81 9.97 8 15.33 16.87
14:53 2 26.4 35 68,981 0 4.2 1.53 16.03 82.65 10.21 3.71 9.74 10.71
14:52 2 26.4 35 68,981 0 2.82 1.27 11.21 78.65 11.05 2 8.13 8.95
14:51 2 26.5 35 68,981 0 0 1.33 11.19 83.1 9.94 2 8.17 8.98
14:50 2 26.5 35 68,979 0 6.03 1.55 11.44 93.79 11.45 2.86 8.16 8.98
14:48 2 26.6 35 69,021 0 0 1.76 11.45 87.35 10.37 2.86 8.97 9.87
14:43 2 26.8 34 69,012 0 0 2.01 10.75 71.3 10.81 2.86 9.02 9.92
14:42 2 26.9 35 69,027 0 0 1.86 11.44 77.21 10.29 2.86 9.75 10.73
14:41 2 26.9 34 69,006 0 0 1.95 11.61 88.84 10.94 2 8.2 9.02
14:40 2 26.9 33 69,045 0 0 2.07 11.07 66.57 9.99 2.86 9.06 9.96